General Aviation Weather

Text Reports

Enter one or more of the following location identifiers separated by a space:

Zip Code, Four-Character ICAO or Three-Character IATA airport codes.

METAR - Aviation Routine Weather Report
KATT - Austin, Texas
Updated at 5:51 AM GMT on April 19, 2014 (12:51 AM CDT):
METAR KATT 190551Z AUTO 00000KT 10SM CLR 16/12 A3016 RMK AO2 SLP206 T01560122 10233 20156 402560150 51006
TAF - Terminal Area Forecast
KATT - Austin, Texas
Updated at 5:51 AM GMT on April 19, 2014 (12:51 AM CDT):
No TAF is currently available for this location.
Decoded:
No decoded TAF is available.
PIREP - Pilot Weather Report
KATT - Austin, Texas
Updated at 5:51 AM GMT on April 19, 2014 (12:51 AM CDT):
No PIREP is currently available for this location.
AIRMET - Airmens Meteorological Information
KATT - Austin, Texas
Updated at 5:51 AM GMT on April 19, 2014 (12:51 AM CDT):
No AIRMET is currently available for this location.
SIGMET - Significant Meteorological Information
KATT - Austin, Texas
Updated at 5:51 AM GMT on April 19, 2014 (12:51 AM CDT):
No SIGMET is currently available for this location.
NOTAM - Notice to Airmen
KATT - Austin, Texas
Updated at 5:51 AM GMT on April 19, 2014 (12:51 AM CDT):
No NOTAM is currently available for this location.
Forecast Area
KATT - Austin, Texas
Updated at 5:51 AM GMT on April 19, 2014 (12:51 AM CDT):
No NOTAM is currently available for this location.
Aviation Weather Maps